createdAt,value
2022-10-23T00:01:24.037Z,13.25
2022-10-23T00:06:30.630Z,13.24
2022-10-23T00:11:37.622Z,13.24
2022-10-23T00:16:43.789Z,13.23
2022-10-23T00:21:50.024Z,13.23
2022-10-23T00:26:56.290Z,13.23
2022-10-23T00:32:02.692Z,13.23
2022-10-23T00:37:08.950Z,13.23
2022-10-23T00:42:18.320Z,13.23
2022-10-23T00:47:24.525Z,13.23
2022-10-23T00:52:31.528Z,13.23
2022-10-23T00:57:37.732Z,13.23
2022-10-23T01:02:44.375Z,13.22
2022-10-23T01:07:54.340Z,13.22
2022-10-23T01:13:05.142Z,13.23
2022-10-23T01:18:14.640Z,13.24
2022-10-23T01:23:28.990Z,13.24
2022-10-23T01:28:38.033Z,13.24
2022-10-23T01:33:46.509Z,13.23
2022-10-23T01:38:55.523Z,13.22
2022-10-23T01:44:05.015Z,13.21
2022-10-23T01:49:13.011Z,13.22
2022-10-23T01:54:21.141Z,13.21
2022-10-23T01:59:28.630Z,13.21
2022-10-23T02:04:35.990Z,13.20
2022-10-23T02:09:42.179Z,13.20
2022-10-23T02:14:54.164Z,13.20
2022-10-23T02:20:03.363Z,13.20
2022-10-23T02:25:12.011Z,13.20
2022-10-23T02:30:19.509Z,13.21
2022-10-23T02:35:26.844Z,13.20
2022-10-23T02:40:37.409Z,13.20
2022-10-23T02:45:48.684Z,13.19
2022-10-23T02:51:00.989Z,13.21
2022-10-23T02:56:11.069Z,13.21
2022-10-23T03:01:17.966Z,13.20
2022-10-23T03:06:24.584Z,13.19
2022-10-23T03:11:30.811Z,13.18
2022-10-23T03:16:37.058Z,13.18
2022-10-23T03:21:43.410Z,13.18
2022-10-23T03:26:49.573Z,13.18
2022-10-23T03:31:56.107Z,13.18
2022-10-23T03:37:02.269Z,13.18
2022-10-23T03:42:08.580Z,13.17
2022-10-23T03:47:14.631Z,13.18
2022-10-23T03:52:20.688Z,13.17
2022-10-23T03:57:26.972Z,13.17
2022-10-23T04:02:33.448Z,13.16
2022-10-23T04:07:39.552Z,13.17
2022-10-23T04:12:46.204Z,13.16
2022-10-23T04:17:52.486Z,13.16
2022-10-23T04:22:58.714Z,13.16
2022-10-23T04:28:05.050Z,13.15
2022-10-23T04:33:11.130Z,13.16
2022-10-23T04:38:17.403Z,13.16
2022-10-23T04:43:23.670Z,13.17
2022-10-23T04:48:29.852Z,13.16
2022-10-23T04:53:35.886Z,13.15
2022-10-23T04:58:42.179Z,13.14
2022-10-23T05:03:48.340Z,13.13
2022-10-23T05:08:54.767Z,13.11
2022-10-23T05:14:00.883Z,13.11
2022-10-23T05:19:09.419Z,13.10
2022-10-23T05:24:15.703Z,13.09
2022-10-23T05:29:21.950Z,13.09
2022-10-23T05:34:29.560Z,13.12
2022-10-23T05:39:35.762Z,13.11
2022-10-23T05:44:42.063Z,13.12
2022-10-23T05:49:48.370Z,13.11
2022-10-23T05:54:54.540Z,13.11
2022-10-23T06:00:00.724Z,13.12
2022-10-23T06:05:07.350Z,13.12
2022-10-23T06:10:13.711Z,13.13
2022-10-23T06:15:19.812Z,13.12
2022-10-23T06:20:27.954Z,13.14
2022-10-23T06:25:35.097Z,13.14
2022-10-23T06:30:42.201Z,13.14
2022-10-23T06:35:48.451Z,13.14
2022-10-23T06:40:55.733Z,13.14
2022-10-23T06:46:03.560Z,13.14
2022-10-23T06:51:11.371Z,13.14
2022-10-23T06:56:17.809Z,13.14
2022-10-23T07:01:24.382Z,13.14
2022-10-23T07:06:30.760Z,13.14
2022-10-23T07:11:37.342Z,13.14
2022-10-23T07:16:43.931Z,13.15
2022-10-23T07:21:50.433Z,13.15
2022-10-23T07:26:57.072Z,13.16
2022-10-23T07:32:04.846Z,13.16
2022-10-23T07:37:11.210Z,13.16
2022-10-23T07:42:17.713Z,13.17
2022-10-23T07:47:24.070Z,13.17
2022-10-23T07:52:33.476Z,13.17
2022-10-23T07:57:42.130Z,13.20
2022-10-23T08:02:48.321Z,13.22
2022-10-23T08:07:54.761Z,13.24
2022-10-23T08:13:01.421Z,13.26
2022-10-23T08:18:08.009Z,13.27
2022-10-23T08:23:16.470Z,13.26
2022-10-23T08:28:22.800Z,13.26
2022-10-23T08:33:29.430Z,13.25
2022-10-23T08:38:36.564Z,13.26
2022-10-23T08:43:45.432Z,13.28
2022-10-23T08:48:53.941Z,13.28
2022-10-23T08:54:04.530Z,13.30
2022-10-23T08:59:20.420Z,13.30
2022-10-23T09:04:26.950Z,13.31
2022-10-23T09:09:45.719Z,13.30
2022-10-23T09:14:56.365Z,13.29
2022-10-23T09:20:07.893Z,13.31
2022-10-23T09:25:19.388Z,13.30
2022-10-23T09:30:29.910Z,13.29
2022-10-23T09:35:36.400Z,13.29
2022-10-23T09:40:43.900Z,13.26
2022-10-23T09:45:58.211Z,13.28
2022-10-23T09:51:05.369Z,13.31
2022-10-23T09:56:26.340Z,13.29
2022-10-23T10:01:34.191Z,13.29
2022-10-23T10:11:50.489Z,13.27
2022-10-23T10:17:00.390Z,13.26
2022-10-23T10:22:09.470Z,13.29
2022-10-23T10:27:22.541Z,13.30
2022-10-23T10:32:35.272Z,13.33
2022-10-23T10:37:49.787Z,13.36
2022-10-23T10:43:10.842Z,13.36
2022-10-23T10:48:29.920Z,13.37
2022-10-23T10:53:45.104Z,13.38
2022-10-23T10:58:53.250Z,13.40
2022-10-23T11:04:05.393Z,13.38
2022-10-23T11:09:20.703Z,13.39
2022-10-23T11:14:29.359Z,13.40
2022-10-23T11:19:37.780Z,13.40
2022-10-23T11:24:53.404Z,13.40
2022-10-23T11:30:20.111Z,13.41
2022-10-23T11:35:36.329Z,13.40
2022-10-23T11:40:47.125Z,13.41
2022-10-23T11:45:53.720Z,13.40
2022-10-23T11:51:01.549Z,13.40
2022-10-23T11:56:24.165Z,13.39
2022-10-23T12:01:36.233Z,13.40
2022-10-23T12:06:43.800Z,13.39
2022-10-23T12:11:51.720Z,13.39
2022-10-23T12:16:58.646Z,13.39
2022-10-23T12:22:05.410Z,13.39
2022-10-23T12:27:21.712Z,13.38
2022-10-23T12:32:32.871Z,13.39
2022-10-23T12:37:54.954Z,13.39
2022-10-23T12:43:01.998Z,13.39
2022-10-23T12:48:19.832Z,13.39
2022-10-23T12:53:26.180Z,13.38
2022-10-23T12:58:33.110Z,13.38
2022-10-23T13:03:40.224Z,13.38
2022-10-23T13:08:48.599Z,13.38
2022-10-23T13:13:55.283Z,13.37
2022-10-23T13:19:01.831Z,13.37
2022-10-23T13:24:21.049Z,13.37
2022-10-23T13:29:29.393Z,13.38
2022-10-23T13:34:36.260Z,13.38
2022-10-23T13:39:42.621Z,13.37
2022-10-23T13:44:48.941Z,13.37
2022-10-23T13:49:55.301Z,13.37
2022-10-23T13:55:01.706Z,13.37
2022-10-23T14:00:09.400Z,13.37
2022-10-23T14:05:15.690Z,13.38
2022-10-23T14:10:24.548Z,13.37
2022-10-23T14:15:33.723Z,13.38
2022-10-23T14:20:41.372Z,13.37
2022-10-23T14:25:47.911Z,13.35
2022-10-23T14:30:54.484Z,13.36
2022-10-23T14:36:00.809Z,13.36
2022-10-23T14:41:11.122Z,13.36
2022-10-23T14:46:18.310Z,13.36
2022-10-23T14:51:25.400Z,13.36
2022-10-23T14:56:32.330Z,13.36
2022-10-23T15:01:43.690Z,13.35
2022-10-23T15:06:54.017Z,13.35
2022-10-23T15:12:00.360Z,13.36
2022-10-23T15:17:06.730Z,13.36
2022-10-23T15:22:12.910Z,13.37
2022-10-23T15:27:19.914Z,13.35
2022-10-23T15:32:26.414Z,13.36
2022-10-23T15:37:32.993Z,13.35
2022-10-23T15:42:39.648Z,13.34
2022-10-23T15:47:46.399Z,13.34
2022-10-23T15:52:53.670Z,13.34
2022-10-23T15:58:04.454Z,13.33
2022-10-23T16:03:11.040Z,13.33
2022-10-23T16:08:17.450Z,13.32
2022-10-23T16:13:23.904Z,13.32
2022-10-23T16:18:30.329Z,13.31
2022-10-23T16:23:36.801Z,13.31
2022-10-23T16:28:44.211Z,13.31
2022-10-23T16:33:51.243Z,13.31
2022-10-23T16:38:57.711Z,13.30
2022-10-23T16:44:04.241Z,13.30
2022-10-23T16:49:10.880Z,13.30
2022-10-23T16:54:17.993Z,13.30
2022-10-23T16:59:24.642Z,13.30
2022-10-23T17:04:31.163Z,13.30
2022-10-23T17:09:38.699Z,13.29
2022-10-23T17:14:45.117Z,13.30
2022-10-23T17:19:51.500Z,13.29
2022-10-23T17:24:57.922Z,13.29
2022-10-23T17:30:04.661Z,13.29
2022-10-23T17:35:13.270Z,13.29
2022-10-23T17:40:24.783Z,13.28
2022-10-23T17:45:31.370Z,13.28
2022-10-23T17:50:37.760Z,13.27
2022-10-23T17:55:43.940Z,13.28
2022-10-23T18:00:50.171Z,13.28
2022-10-23T18:05:56.541Z,13.28
2022-10-23T18:11:04.820Z,13.28
2022-10-23T18:16:12.910Z,13.26
2022-10-23T18:21:19.931Z,13.27
2022-10-23T18:26:27.320Z,13.28
2022-10-23T18:31:33.581Z,13.27
2022-10-23T18:36:41.126Z,13.27
2022-10-23T18:41:47.709Z,13.27
2022-10-23T18:46:53.979Z,13.27
2022-10-23T18:52:00.151Z,13.26
2022-10-23T18:57:06.340Z,13.26
2022-10-23T19:02:13.677Z,13.26
2022-10-23T19:07:19.900Z,13.26
2022-10-23T19:12:26.250Z,13.26
2022-10-23T19:17:33.951Z,13.27
2022-10-23T19:22:41.357Z,13.26
2022-10-23T19:27:48.019Z,13.27
2022-10-23T19:32:54.334Z,13.26
2022-10-23T19:38:00.589Z,13.26
2022-10-23T19:43:06.696Z,13.26
2022-10-23T19:48:12.950Z,13.26
2022-10-23T19:53:19.030Z,13.25
2022-10-23T19:58:25.159Z,13.26
2022-10-23T20:03:31.219Z,13.26
2022-10-23T20:08:37.550Z,13.25
2022-10-23T20:13:44.030Z,13.25
2022-10-23T20:18:50.190Z,13.25
2022-10-23T20:23:58.109Z,13.26
2022-10-23T20:29:04.494Z,13.26
2022-10-23T20:34:11.010Z,13.25
2022-10-23T20:39:18.318Z,13.25
2022-10-23T20:44:25.364Z,13.26
2022-10-23T20:49:31.680Z,13.26
2022-10-23T20:54:38.610Z,13.25
2022-10-23T20:59:45.084Z,13.25
2022-10-23T21:04:52.030Z,13.25
2022-10-23T21:09:58.210Z,13.24
2022-10-23T21:15:04.260Z,13.24
2022-10-23T21:20:11.220Z,13.25
2022-10-23T21:25:17.464Z,13.25
2022-10-23T21:30:23.641Z,13.26
2022-10-23T21:35:30.266Z,13.25
2022-10-23T21:40:36.408Z,13.26
2022-10-23T21:45:42.631Z,13.25
2022-10-23T21:55:56.599Z,13.23
2022-10-23T22:01:03.641Z,13.24
2022-10-23T22:06:10.564Z,13.22
2022-10-23T22:11:17.361Z,13.23
2022-10-23T22:16:24.142Z,13.23
2022-10-23T22:21:31.149Z,13.23
2022-10-23T22:26:38.023Z,13.24
2022-10-23T22:31:47.295Z,13.24
2022-10-23T22:36:56.729Z,13.24
2022-10-23T22:42:02.900Z,13.24
2022-10-23T22:47:09.114Z,13.22
2022-10-23T22:52:15.160Z,13.23
2022-10-23T22:57:21.294Z,13.23
2022-10-23T23:02:27.500Z,13.23
2022-10-23T23:07:33.729Z,13.22
2022-10-23T23:12:39.920Z,13.23
2022-10-23T23:17:46.417Z,13.22
2022-10-23T23:22:52.762Z,13.21
2022-10-23T23:27:59.050Z,13.23
2022-10-23T23:33:05.424Z,13.22
2022-10-23T23:38:12.224Z,13.22
2022-10-23T23:43:18.300Z,13.21
2022-10-23T23:48:24.612Z,13.22
2022-10-23T23:53:30.739Z,13.22
2022-10-23T23:58:36.821Z,13.21
